Time;durP1;ratioP1;P1;durP2;ratioP2;P2;SDS_P1;SDS_P2;PMS_P1;PMS_P2;Temp;Humidity;BMP_temperature;BMP_pressure;BME280_temperature;BME280_humidity;BME280_pressure;Samples;Min_cycle;Max_cycle;Signal;HPM_P1;HPM_P2
2021/03/26 00:00:50;;;;;;;79.73;48.07;;;;;;;2.56;75.09;101049.91;100533;1159;82113;-61
2021/03/26 00:02:56;;;;;;;74.70;46.30;;;;;;;2.62;74.77;101044.09;100543;1159;71460;-61
2021/03/26 00:05:02;;;;;;;72.47;44.53;;;;;;;2.60;74.96;101043.38;100579;1151;84610;-69
2021/03/26 00:07:08;;;;;;;68.93;43.40;;;;;;;2.58;74.92;101041.81;100576;1149;78407;-61
2021/03/26 00:09:18;;;;;;;76.17;43.57;;;;;;;2.62;75.13;101051.24;100552;1152;61611;-61
2021/03/26 00:11:26;;;;;;;71.37;43.27;;;;;;;2.67;74.95;101044.57;100537;1151;82410;-61
2021/03/26 00:13:32;;;;;;;77.77;45.13;;;;;;;2.69;75.35;101050.63;100543;1158;71476;-60
2021/03/26 00:15:38;;;;;;;92.53;52.53;;;;;;;2.71;75.07;101043.37;100610;1151;84155;-60
2021/03/26 00:17:44;;;;;;;83.80;49.57;;;;;;;2.74;74.71;101055.61;100569;1152;77478;-60
2021/03/26 00:19:50;;;;;;;84.53;48.43;;;;;;;2.78;74.98;101046.37;100543;1152;61967;-59
2021/03/26 00:21:57;;;;;;;93.00;51.80;;;;;;;2.80;75.02;101053.27;101064;1149;82968;-66
2021/03/26 00:24:04;;;;;;;91.87;50.97;;;;;;;2.84;74.96;101043.21;100636;1151;70895;-67
2021/03/26 00:26:10;;;;;;;100.03;55.30;;;;;;;2.88;75.03;101037.49;101137;1149;84335;-67
2021/03/26 00:28:16;;;;;;;85.83;51.43;;;;;;;2.93;75.20;101043.33;100556;1151;77795;-61
2021/03/26 00:30:27;;;;;;;79.50;47.23;;;;;;;2.98;75.24;101056.28;100581;1151;61840;-61
2021/03/26 00:32:32;;;;;;;78.83;47.63;;;;;;;3.02;75.15;101047.08;100607;1150;82845;-62
2021/03/26 00:34:41;;;;;;;90.13;49.90;;;;;;;3.11;75.39;101051.64;100578;1152;71936;-60
2021/03/26 00:36:47;;;;;;;93.03;52.60;;;;;;;3.27;75.40;101045.91;100526;1151;84421;-61
2021/03/26 00:38:53;;;;;;;101.37;54.93;;;;;;;3.39;75.33;101045.72;100611;1151;77612;-60
2021/03/26 00:40:59;;;;;;;90.20;50.83;;;;;;;3.49;75.37;101043.97;100645;1151;61784;-60
2021/03/26 00:43:06;;;;;;;91.40;53.27;;;;;;;3.58;75.19;101037.02;100625;1151;83023;-64
2021/03/26 00:45:17;;;;;;;93.50;53.40;;;;;;;3.69;75.21;101042.30;100548;1151;71300;-63
2021/03/26 00:47:23;;;;;;;93.10;54.53;;;;;;;3.76;75.08;101029.28;100573;1151;83891;-60
2021/03/26 00:49:29;;;;;;;96.50;55.33;;;;;;;3.84;74.99;101035.67;100595;1151;77539;-60
2021/03/26 00:51:39;;;;;;;103.03;55.50;;;;;;;3.90;74.93;101031.63;100615;1151;61756;-60
2021/03/26 00:53:45;;;;;;;97.97;54.83;;;;;;;3.96;74.77;101037.27;100564;1151;82668;-61
2021/03/26 00:55:53;;;;;;;95.60;55.65;;;;;;;4.01;74.80;101035.05;100639;1159;72260;-62
2021/03/26 00:58:01;;;;;;;94.23;54.03;;;;;;;4.05;74.71;101033.82;100573;1152;84363;-64
2021/03/26 01:00:13;;;;;;;88.50;50.83;;;;;;;4.09;74.51;101034.41;100517;1151;77435;-64
2021/03/26 01:02:18;;;;;;;94.33;53.50;;;;;;;4.10;74.44;101036.09;100525;1151;61858;-64
2021/03/26 01:04:26;;;;;;;95.93;54.67;;;;;;;4.14;74.33;101033.03;100940;1150;82304;-63
2021/03/26 01:06:34;;;;;;;98.63;56.87;;;;;;;4.21;74.28;101032.48;100544;1159;71053;-63
2021/03/26 01:08:42;;;;;;;97.53;54.17;;;;;;;4.25;74.28;101025.90;100565;1151;83371;-60
2021/03/26 01:10:57;;;;;;;96.77;53.27;;;;;;;4.30;74.27;101029.02;100591;1150;77699;-61
2021/03/26 01:13:05;;;;;;;96.60;52.88;;;;;;;4.35;74.11;101026.78;100570;1152;61768;-64
2021/03/26 01:15:16;;;;;;;100.57;53.53;;;;;;;4.38;74.03;101035.39;100628;1151;82575;-65
2021/03/26 01:17:22;;;;;;;97.77;53.40;;;;;;;4.38;73.93;101029.19;100614;1151;70640;-65
2021/03/26 01:19:29;;;;;;;95.50;53.87;;;;;;;4.38;73.89;101027.37;100593;1151;84255;-64
2021/03/26 01:21:37;;;;;;;102.23;55.43;;;;;;;4.41;73.50;101026.25;100503;1151;76815;-63
2021/03/26 01:23:44;;;;;;;94.83;54.40;;;;;;;4.41;73.83;101031.60;100799;1151;61813;-62
2021/03/26 01:25:51;;;;;;;93.87;54.87;;;;;;;4.43;73.80;101026.95;100563;1151;81994;-62
2021/03/26 01:27:56;;;;;;;93.90;54.70;;;;;;;4.45;73.70;101022.34;100670;1159;70928;-62
2021/03/26 01:30:05;;;;;;;98.40;55.60;;;;;;;4.47;73.67;101031.07;100668;1150;84822;-63
2021/03/26 01:32:11;;;;;;;94.97;53.70;;;;;;;4.48;73.59;101027.39;100627;1150;77084;-62
2021/03/26 01:34:17;;;;;;;99.13;55.33;;;;;;;4.49;73.58;101027.27;100477;1152;61855;-63
2021/03/26 01:36:23;;;;;;;101.60;56.27;;;;;;;4.50;73.30;101030.80;100551;1151;82559;-63
2021/03/26 01:38:30;;;;;;;98.13;56.70;;;;;;;4.52;73.36;101026.16;100522;1159;70687;-63
2021/03/26 01:40:43;;;;;;;103.77;58.87;;;;;;;4.54;73.27;101034.88;100606;1151;83669;-63
2021/03/26 01:42:49;;;;;;;102.40;57.08;;;;;;;4.56;73.32;101035.63;100587;1151;78493;-63
2021/03/26 01:44:56;;;;;;;103.77;55.93;;;;;;;4.57;73.24;101031.94;100534;1151;61869;-63
2021/03/26 01:47:02;;;;;;;96.60;56.60;;;;;;;4.57;73.06;101027.44;100552;1159;82126;-63
2021/03/26 01:49:09;;;;;;;96.63;55.93;;;;;;;4.60;72.93;101037.02;100571;1159;72204;-63
2021/03/26 01:51:21;;;;;;;99.27;55.27;;;;;;;4.60;73.00;101037.88;100559;1151;84090;-63
2021/03/26 01:53:28;;;;;;;98.03;55.13;;;;;;;4.60;72.82;101045.05;100620;1151;77772;-61
2021/03/26 01:55:44;;;;;;;98.53;56.20;;;;;;;4.61;72.75;101049.44;100581;1152;61573;-60
2021/03/26 01:57:50;;;;;;;99.13;58.73;;;;;;;4.62;72.75;101046.61;100513;1159;82400;-64
2021/03/26 01:59:56;;;;;;;108.77;61.53;;;;;;;4.62;72.90;101051.96;100599;1159;71124;-64
2021/03/26 02:02:12;;;;;;;100.50;56.37;;;;;;;4.62;72.97;101059.13;101125;1149;84087;-60
2021/03/26 02:04:32;;;;;;;97.17;55.07;;;;;;;4.55;72.75;101055.31;100566;1151;78615;-60
2021/03/26 02:06:47;;;;;;;101.00;57.70;;;;;;;4.54;72.95;101048.26;101114;1149;61857;-60
2021/03/26 02:09:02;;;;;;;97.27;55.17;;;;;;;4.55;72.89;101047.30;100581;1151;82303;-64
2021/03/26 02:11:17;;;;;;;94.30;54.27;;;;;;;4.55;72.77;101049.97;100657;1159;71960;-63
2021/03/26 02:13:28;;;;;;;95.77;55.77;;;;;;;4.56;72.76;101051.67;100577;1151;84648;-63
2021/03/26 02:15:42;;;;;;;97.20;55.10;;;;;;;4.55;72.95;101055.31;100566;1151;77329;-63
2021/03/26 02:17:48;;;;;;;97.80;54.17;;;;;;;4.52;72.97;101058.26;100541;1152;62008;-63
2021/03/26 02:19:58;;;;;;;94.00;53.43;;;;;;;4.49;72.78;101053.17;100638;1159;83226;-64
2021/03/26 02:22:05;;;;;;;91.47;53.63;;;;;;;4.46;72.89;101053.44;100639;1150;71300;-60
2021/03/26 02:24:14;;;;;;;93.57;54.70;;;;;;;4.48;72.84;101059.49;100594;1150;83924;-60
2021/03/26 02:26:25;;;;;;;93.73;55.07;;;;;;;4.48;72.92;101048.80;100552;1151;78502;-60
2021/03/26 02:28:31;;;;;;;93.17;55.70;;;;;;;4.44;72.97;101042.03;100641;1149;61768;-65
2021/03/26 02:30:43;;;;;;;87.83;53.57;;;;;;;4.45;73.13;101054.44;100570;1150;82410;-65
2021/03/26 02:32:52;;;;;;;95.53;53.80;;;;;;;4.47;73.07;101057.81;100640;1159;71558;-65
2021/03/26 02:35:20;;;;;;;89.37;50.97;;;;;;;4.48;72.84;101054.14;100603;1152;84060;-65
2021/03/26 02:37:26;;;;;;;96.90;53.20;;;;;;;4.46;73.05;101045.41;100607;1151;77802;-61
2021/03/26 02:39:42;;;;;;;89.57;53.03;;;;;;;4.42;73.16;101047.50;100629;1151;61832;-60
2021/03/26 02:41:53;;;;;;;91.47;52.90;;;;;;;4.43;73.15;101043.00;100586;1152;82888;-64
2021/03/26 02:44:08;;;;;;;89.80;51.83;;;;;;;4.43;73.11;101043.00;100629;1152;71628;-63
2021/03/26 02:46:19;;;;;;;86.87;51.27;;;;;;;4.38;73.25;101043.42;100583;1151;84575;-64
2021/03/26 02:48:38;;;;;;;91.73;54.13;;;;;;;4.36;73.22;101036.52;100561;1152;78106;-61
2021/03/26 02:50:56;;;;;;;95.10;55.03;;;;;;;4.36;73.18;101031.16;100613;1149;61473;-61
2021/03/26 02:53:08;;;;;;;92.73;52.17;;;;;;;4.35;73.40;101032.13;100575;1159;82121;-61
2021/03/26 02:55:26;;;;;;;98.20;54.83;;;;;;;4.37;73.22;101035.54;100589;1159;72228;-61
2021/03/26 02:57:36;;;;;;;93.00;53.83;;;;;;;4.39;73.13;101046.95;100890;1150;83930;-64
2021/03/26 02:59:49;;;;;;;90.87;54.43;;;;;;;4.39;73.13;101038.92;100599;1150;77747;-65
2021/03/26 03:01:58;;;;;;;89.33;52.37;;;;;;;4.37;73.11;101041.71;100645;1151;61726;-60
2021/03/26 03:04:11;;;;;;;93.57;52.33;;;;;;;4.34;73.09;101041.97;100665;1151;83068;-61
2021/03/26 03:06:24;;;;;;;95.97;53.57;;;;;;;4.33;73.32;101034.10;100643;1159;70887;-60
2021/03/26 03:08:34;;;;;;;94.53;51.53;;;;;;;4.34;73.24;101038.48;100571;1151;85013;-60
2021/03/26 03:10:44;;;;;;;98.70;56.63;;;;;;;4.38;73.21;101046.09;100537;1151;77594;-60
2021/03/26 03:12:55;;;;;;;99.43;54.70;;;;;;;4.40;73.22;101037.92;100588;1152;61663;-63
2021/03/26 03:15:14;;;;;;;101.37;58.00;;;;;;;4.43;73.15;101037.66;100554;1159;82896;-64
2021/03/26 03:17:25;;;;;;;98.37;56.13;;;;;;;4.42;73.13;101034.13;100563;1152;71608;-61
2021/03/26 03:19:41;;;;;;;96.97;54.77;;;;;;;4.42;73.18;101035.98;100481;1152;84807;-61
2021/03/26 03:21:55;;;;;;;98.90;55.23;;;;;;;4.37;73.16;101036.36;100552;1150;78313;-61
2021/03/26 03:24:11;;;;;;;99.88;56.73;;;;;;;4.38;73.26;101040.74;100647;1150;61558;-61
2021/03/26 03:26:26;;;;;;;97.43;54.73;;;;;;;4.40;73.12;101036.09;100550;1152;81922;-61
2021/03/26 03:28:41;;;;;;;94.97;55.33;;;;;;;4.43;73.28;101037.66;100631;1159;71581;-63
2021/03/26 03:30:58;;;;;;;102.70;56.87;;;;;;;4.44;73.17;101032.19;100574;1152;84908;-64
2021/03/26 03:33:11;;;;;;;102.93;58.37;;;;;;;4.48;73.03;101035.41;100530;1152;78591;-61
2021/03/26 03:35:35;;;;;;;98.00;57.43;;;;;;;4.49;72.99;101039.80;100637;1151;61746;-60
2021/03/26 03:37:49;;;;;;;102.03;55.73;;;;;;;4.49;73.00;101043.33;100536;1159;82415;-60
2021/03/26 03:40:08;;;;;;;102.73;57.97;;;;;;;4.52;72.93;101044.88;100582;1159;71072;-60
2021/03/26 03:42:22;;;;;;;106.57;57.63;;;;;;;4.54;73.00;101042.91;100619;1149;84096;-63
2021/03/26 03:44:38;;;;;;;100.13;58.07;;;;;;;4.52;72.85;101042.20;100569;1149;78402;-63
2021/03/26 03:46:51;;;;;;;98.37;57.50;;;;;;;4.50;72.91;101045.03;100561;1152;61691;-61
2021/03/26 03:49:06;;;;;;;90.37;54.47;;;;;;;4.52;72.97;101055.58;100621;1150;82438;-60
2021/03/26 03:51:19;;;;;;;98.73;54.80;;;;;;;4.44;72.92;101050.91;100659;1150;70940;-60
2021/03/26 03:53:33;;;;;;;;;;;;;;;4.43;73.06;101045.68;100618;1159;83826;-60
2021/03/26 03:55:47;;;;;;;95.53;52.07;;;;;;;4.40;73.08;101045.94;100604;1153;78202;-60
2021/03/26 03:58:03;;;;;;;94.63;53.77;;;;;;;4.42;72.98;101052.85;100948;1152;61838;-64
2021/03/26 04:00:18;;;;;;;101.93;55.53;;;;;;;4.40;73.00;101045.94;100550;1159;83132;-64
2021/03/26 04:02:35;;;;;;;98.60;56.00;;;;;;;4.36;73.25;101049.88;100670;1151;70977;-60
2021/03/26 04:04:46;;;;;;;97.73;55.30;;;;;;;4.39;73.24;101052.30;100643;1151;83587;-60
2021/03/26 04:06:57;;;;;;;95.47;54.27;;;;;;;4.40;73.08;101057.50;100591;1151;77885;-64
2021/03/26 04:09:08;;;;;;;95.00;52.97;;;;;;;4.41;73.28;101053.00;100597;1151;61754;-65
2021/03/26 04:11:20;;;;;;;98.30;56.37;;;;;;;4.42;73.12;101050.17;100508;1159;81588;-64
2021/03/26 04:13:30;;;;;;;98.87;56.60;;;;;;;4.45;73.04;101057.12;100565;1159;71510;-61
2021/03/26 04:15:44;;;;;;;100.03;56.17;;;;;;;4.48;73.09;101064.84;100622;1151;84008;-63
2021/03/26 04:18:02;;;;;;;103.83;58.73;;;;;;;4.46;72.95;101056.97;100592;1152;78061;-63
2021/03/26 04:20:15;;;;;;;96.57;55.63;;;;;;;4.47;73.13;101061.34;100563;1153;61650;-63
2021/03/26 04:22:26;;;;;;;98.65;54.33;;;;;;;4.47;72.96;101057.81;100565;1159;81825;-64
2021/03/26 04:24:40;;;;;;;89.10;50.70;;;;;;;4.43;73.26;101048.35;100638;1152;70858;-63
2021/03/26 04:26:52;;;;;;;97.63;56.27;;;;;;;4.40;73.20;101046.80;100614;1151;84984;-63
2021/03/26 04:29:06;;;;;;;99.00;57.03;;;;;;;4.45;73.24;101057.12;100579;1152;77690;-62
2021/03/26 04:31:20;;;;;;;101.83;55.67;;;;;;;4.47;73.29;101063.17;100578;1152;61616;-63
2021/03/26 04:33:27;;;;;;;95.78;56.03;;;;;;;4.48;73.17;101063.02;100515;1159;83153;-65
2021/03/26 04:35:32;;;;;;;100.87;57.27;;;;;;;4.51;73.04;101059.23;100554;1159;71860;-63
2021/03/26 04:37:47;;;;;;;96.10;56.60;;;;;;;4.49;73.03;101059.38;100576;1151;83888;-64
2021/03/26 04:40:02;;;;;;;99.37;54.63;;;;;;;4.49;73.17;101064.73;100558;1149;78102;-64
2021/03/26 04:42:15;;;;;;;97.60;56.03;;;;;;;4.48;73.19;101060.34;100680;1151;61797;-63
2021/03/26 04:44:30;;;;;;;98.50;56.10;;;;;;;4.51;73.32;101060.08;100610;1149;82751;-64
2021/03/26 04:46:44;;;;;;;96.00;56.50;;;;;;;4.53;73.04;101051.94;100657;1151;72182;-65
2021/03/26 04:49:01;;;;;;;95.93;54.53;;;;;;;4.56;73.04;101060.52;100614;1151;84203;-67
2021/03/26 04:51:18;;;;;;;96.57;55.07;;;;;;;4.60;73.23;101058.43;100604;1149;77144;-65
2021/03/26 04:53:30;;;;;;;97.50;54.90;;;;;;;4.60;73.06;101061.10;100576;1153;61829;-65
2021/03/26 04:55:43;;;;;;;100.00;55.23;;;;;;;4.58;73.22;101069.28;101064;1152;82446;-66
2021/03/26 04:57:57;;;;;;;143.58;81.45;;;;;;;4.64;73.27;101066.05;100583;1152;70685;-66
2021/03/26 05:00:10;;;;;;;130.65;73.10;;;;;;;4.69;73.07;101076.36;100548;1151;84061;-65
2021/03/26 05:02:18;;;;;;;124.55;69.63;;;;;;;4.65;73.09;101075.77;101032;1149;78637;-65
2021/03/26 05:04:29;;;;;;;116.43;65.90;;;;;;;4.71;73.15;101071.71;100645;1150;61859;-65
2021/03/26 05:06:46;;;;;;;107.10;59.30;;;;;;;4.75;73.01;101075.83;100608;1151;81634;-64
2021/03/26 05:09:10;;;;;;;109.53;58.33;;;;;;;4.78;72.66;101071.02;100535;1159;72240;-60
2021/03/26 05:11:20;;;;;;;107.18;57.73;;;;;;;4.81;72.94;101079.79;100872;1150;84216;-61
2021/03/26 05:13:31;;;;;;;106.90;59.03;;;;;;;4.85;72.80;101079.38;100587;1150;78416;-62
2021/03/26 05:15:45;;;;;;;105.77;59.97;;;;;;;4.90;72.69;101085.16;100673;1151;61737;-61
2021/03/26 05:17:56;;;;;;;102.23;58.43;;;;;;;4.95;72.88;101082.91;100583;1151;81843;-63
2021/03/26 05:20:11;;;;;;;99.13;57.67;;;;;;;4.98;72.83;101084.47;100548;1159;71286;-64
2021/03/26 05:22:40;;;;;;;104.90;59.63;;;;;;;4.98;72.60;101077.29;100605;1152;83648;-61
2021/03/26 05:24:54;;;;;;;100.47;58.40;;;;;;;5.02;72.60;101086.76;100565;1149;78050;-61
2021/03/26 05:27:00;;;;;;;;;;;;;;;5.05;72.61;101085.64;100543;1159;61657;-63
2021/03/26 05:29:08;;;;;;;104.03;57.37;;;;;;;5.07;72.44;101087.19;100541;1159;82432;-63
2021/03/26 05:31:46;;;;;;;100.53;56.00;;;;;;;5.15;72.63;101092.70;100515;1159;71918;-63
2021/03/26 05:33:58;;;;;;;103.27;57.80;;;;;;;5.12;72.52;101092.97;100590;1151;83706;-61
2021/03/26 05:36:09;;;;;;;102.73;57.90;;;;;;;5.18;72.35;101094.25;100540;1152;78863;-61
2021/03/26 05:38:23;;;;;;;102.47;58.67;;;;;;;5.19;72.65;101093.28;100615;1149;61915;-61
2021/03/26 05:41:09;;;;;;;100.43;57.98;;;;;;;5.23;72.55;101097.36;100555;1159;81917;-61
2021/03/26 05:43:29;;;;;;;113.23;62.20;;;;;;;5.30;72.36;101088.63;100572;1159;71554;-63
2021/03/26 05:45:47;;;;;;;109.23;61.33;;;;;;;5.33;72.47;101098.22;100551;1151;83734;-64
2021/03/26 05:48:12;;;;;;;100.67;60.30;;;;;;;5.41;72.40;101094.87;100555;1152;78457;-63
2021/03/26 05:50:46;;;;;;;116.57;66.83;;;;;;;5.41;72.18;101105.58;100579;1151;61751;-63
2021/03/26 05:53:09;;;;;;;105.70;62.50;;;;;;;5.48;72.25;101104.03;100648;1151;82752;-61
2021/03/26 05:55:39;;;;;;;103.57;60.23;;;;;;;5.54;72.06;101098.97;100641;1149;71755;-60
2021/03/26 05:58:13;;;;;;;102.80;59.90;;;;;;;5.57;71.97;101103.20;100634;1150;84129;-63
2021/03/26 06:00:50;;;;;;;102.40;57.48;;;;;;;5.56;72.03;101102.34;100557;1151;78060;-63
2021/03/26 06:03:32;;;;;;;99.97;56.27;;;;;;;5.59;71.87;101102.06;100670;1151;61839;-61
2021/03/26 06:06:26;;;;;;;105.30;58.57;;;;;;;5.60;72.10;101105.60;100543;1151;82957;-61
2021/03/26 06:09:11;;;;;;;107.47;60.07;;;;;;;5.69;72.05;101099.38;100355;1159;71823;-60
2021/03/26 06:11:37;;;;;;;104.80;60.23;;;;;;;5.76;72.01;101103.20;100372;1151;84911;-60
2021/03/26 06:14:17;;;;;;;101.77;58.03;;;;;;;5.86;71.93;101110.28;100574;1151;78347;-61
2021/03/26 06:16:58;;;;;;;102.97;58.97;;;;;;;5.92;71.66;101116.91;100599;1150;61842;-61
2021/03/26 06:19:54;;;;;;;102.23;58.70;;;;;;;5.97;71.90;101122.69;100478;1151;83029;-67
2021/03/26 06:22:34;;;;;;;104.50;60.27;;;;;;;6.04;71.45;101120.30;100096;1162;71112;-61
2021/03/26 06:25:28;;;;;;;100.37;58.20;;;;;;;6.10;71.54;101125.11;100274;1151;84606;-63
2021/03/26 06:27:41;;;;;;;100.70;58.70;;;;;;;6.17;71.49;101124.38;100586;1151;78224;-62
2021/03/26 06:30:05;;;;;;;103.37;60.83;;;;;;;6.24;71.49;101119.27;100559;1150;61618;-65
2021/03/26 06:33:05;;;;;;;103.67;60.67;;;;;;;6.30;71.26;101129.43;100658;1151;81713;-64
2021/03/26 06:36:03;;;;;;;104.50;59.57;;;;;;;6.37;71.35;101126.02;100628;1152;71327;-65
2021/03/26 06:38:58;;;;;;;111.00;62.60;;;;;;;6.49;71.34;101132.92;100603;1152;84662;-65
2021/03/26 06:41:15;;;;;;;117.68;66.85;;;;;;;6.61;71.23;101132.75;100186;1152;77653;-63
2021/03/26 06:44:11;;;;;;;106.97;62.33;;;;;;;6.61;70.73;101133.60;100583;1152;61722;-64
2021/03/26 06:46:37;;;;;;;107.30;60.83;;;;;;;6.76;70.94;101137.49;100180;1154;82797;-64
2021/03/26 06:49:05;;;;;;;103.07;62.23;;;;;;;6.90;70.78;101136.17;100539;1154;72067;-63
2021/03/26 06:51:25;;;;;;;99.43;59.97;;;;;;;7.02;70.57;101135.00;100651;1152;84006;-62
2021/03/26 06:53:42;;;;;;;103.63;60.33;;;;;;;7.05;70.63;101132.02;100604;1153;77075;-63
2021/03/26 06:56:08;;;;;;;104.90;60.03;;;;;;;7.20;70.17;101129.69;100561;1152;62162;-62
2021/03/26 06:58:52;;;;;;;107.50;63.57;;;;;;;7.28;69.66;101138.66;100601;1152;82632;-62
2021/03/26 07:01:35;;;;;;;106.33;60.33;;;;;;;7.44;69.88;101136.19;100384;1159;72058;-63
2021/03/26 07:04:19;;;;;;;102.47;60.93;;;;;;;7.66;69.18;101132.22;100483;1153;83293;-62
2021/03/26 07:07:00;;;;;;;99.43;60.17;;;;;;;7.72;69.29;101132.44;100572;1153;77255;-61
2021/03/26 07:09:43;;;;;;;101.83;60.57;;;;;;;7.88;68.98;101137.14;100570;1152;61651;-62
2021/03/26 07:12:14;;;;;;;96.47;58.13;;;;;;;7.97;68.17;101135.34;100646;1152;82389;-65
2021/03/26 07:14:42;;;;;;;102.23;61.83;;;;;;;8.02;68.62;101135.75;100610;1159;72287;-65
2021/03/26 07:17:38;;;;;;;104.87;63.43;;;;;;;8.12;68.22;101139.20;100602;1152;84445;-64
2021/03/26 07:20:12;;;;;;;99.43;61.83;;;;;;;8.20;67.70;101126.66;100598;1152;77501;-65
2021/03/26 07:23:11;;;;;;;96.95;58.73;;;;;;;8.32;67.69;101129.98;100567;1152;61659;-62
2021/03/26 07:25:28;;;;;;;97.47;58.07;;;;;;;8.41;67.31;101133.55;100643;1152;82000;-63
2021/03/26 07:27:54;;;;;;;103.63;62.90;;;;;;;8.44;67.12;101123.31;100633;1152;71879;-64
2021/03/26 07:30:43;;;;;;;103.63;60.33;;;;;;;8.45;67.30;101134.94;100567;1152;84752;-65
2021/03/26 07:33:00;;;;;;;92.43;58.80;;;;;;;8.59;67.19;101128.98;100638;1152;77638;-60
2021/03/26 07:35:58;;;;;;;97.53;57.93;;;;;;;8.71;66.83;101136.63;100626;1152;61589;-60
2021/03/26 07:38:27;;;;;;;95.50;61.00;;;;;;;8.79;66.62;101138.51;100423;1153;82939;-61
2021/03/26 07:40:53;;;;;;;93.83;57.67;;;;;;;8.86;65.91;101135.04;100537;1152;71036;-60
2021/03/26 07:43:22;;;;;;;93.37;57.43;;;;;;;8.97;66.56;101138.45;100566;1153;83899;-66
2021/03/26 07:46:06;;;;;;;99.27;59.93;;;;;;;9.17;66.23;101145.30;100621;1152;78030;-66
2021/03/26 07:48:46;;;;;;;100.33;63.43;;;;;;;9.17;65.09;101142.59;100552;1153;61810;-60
2021/03/26 07:51:00;;;;;;;95.60;59.63;;;;;;;9.32;65.70;101140.95;100559;1159;82163;-61
2021/03/26 07:53:45;;;;;;;92.93;57.93;;;;;;;9.56;65.34;101138.33;100483;1159;71156;-60
2021/03/26 07:56:06;;;;;;;89.27;56.70;;;;;;;9.95;65.26;101139.42;100440;1153;83996;-61
2021/03/26 07:58:46;;;;;;;86.73;57.20;;;;;;;10.15;64.74;101139.13;100581;1152;77698;-61
2021/03/26 08:01:15;;;;;;;92.80;60.20;;;;;;;10.31;63.33;101139.13;100571;1152;62019;-63
2021/03/26 08:03:51;;;;;;;93.17;57.40;;;;;;;10.56;63.98;101143.50;100534;1159;81297;-62
2021/03/26 08:06:10;;;;;;;;;;;;;;;10.95;63.32;101146.28;100515;1159;71877;-62
2021/03/26 08:08:56;;;;;;;89.23;58.27;;;;;;;11.24;62.71;101144.66;100600;1153;83987;-63
2021/03/26 08:11:25;;;;;;;85.07;55.87;;;;;;;11.92;62.88;101138.54;100563;1152;77702;-66
2021/03/26 08:14:09;;;;;;;79.87;53.07;;;;;;;12.77;62.13;101141.89;100589;1152;61688;-71
2021/03/26 08:16:58;;;;;;;79.77;56.27;;;;;;;12.57;59.46;101140.73;100602;1152;81864;-65
2021/03/26 08:19:18;;;;;;;85.63;59.17;;;;;;;12.79;59.35;101142.54;100539;1159;71789;-63
2021/03/26 08:21:44;;;;;;;84.40;58.00;;;;;;;13.08;59.76;101153.42;100624;1152;83881;-62
2021/03/26 08:24:10;;;;;;;79.67;55.33;;;;;;;13.09;57.49;101148.84;100432;1153;78307;-65
2021/03/26 08:26:35;;;;;;;85.83;57.90;;;;;;;13.26;57.48;101156.62;100539;1152;61839;-65
2021/03/26 08:29:01;;;;;;;81.90;57.27;;;;;;;13.16;57.28;101149.80;100518;1159;82768;-69
2021/03/26 08:31:32;;;;;;;82.37;57.17;;;;;;;13.30;57.24;101152.48;101112;1152;71376;-70
2021/03/26 08:34:11;;;;;;;79.50;55.43;;;;;;;13.41;56.55;101149.28;100553;1149;84689;-61
2021/03/26 08:36:42;;;;;;;79.43;54.57;;;;;;;13.20;55.32;101151.94;100565;1153;77864;-61
2021/03/26 08:39:32;;;;;;;79.00;53.93;;;;;;;12.74;54.70;101170.22;100578;1151;62251;-61
2021/03/26 08:41:46;;;;;;;77.43;51.93;;;;;;;14.03;55.10;101168.63;101059;1149;82510;-60
2021/03/26 08:43:55;;;;;;;78.27;55.33;;;;;;;15.09;55.30;101163.05;100607;1151;71109;-60
2021/03/26 08:46:08;;;;;;;78.10;55.80;;;;;;;15.64;54.08;101167.55;100599;1151;84132;-61
2021/03/26 08:48:34;;;;;;;78.25;55.03;;;;;;;16.50;53.04;101165.86;100623;1152;77705;-61
2021/03/26 08:50:55;;;;;;;77.80;55.33;;;;;;;17.48;53.16;101170.34;100531;1152;61794;-61
2021/03/26 08:53:23;;;;;;;72.63;54.10;;;;;;;18.40;51.01;101173.47;100575;1151;81827;-66
2021/03/26 08:55:52;;;;;;;68.50;52.10;;;;;;;18.88;49.91;101164.66;100638;1159;71013;-66
2021/03/26 08:58:18;;;;;;;71.77;52.30;;;;;;;19.26;48.55;101160.69;100630;1151;83415;-65
2021/03/26 09:00:42;;;;;;;73.17;54.63;;;;;;;19.81;47.15;101171.64;100562;1153;79339;-66
2021/03/26 09:02:58;;;;;;;;;;;;;;;20.07;46.69;101162.23;100612;1159;61691;-61
2021/03/26 09:05:33;;;;;;;70.73;53.25;;;;;;;20.03;46.03;101159.95;100626;1152;82403;-61
2021/03/26 09:07:59;;;;;;;67.50;53.60;;;;;;;20.57;45.51;101164.41;100682;1149;70953;-61
2021/03/26 09:10:56;;;;;;;72.83;52.83;;;;;;;20.92;43.88;101160.88;100615;1152;84967;-62
2021/03/26 09:13:27;;;;;;;65.70;52.70;;;;;;;21.08;43.74;101169.27;100561;1151;79028;-62
2021/03/26 09:15:55;;;;;;;63.50;50.95;;;;;;;20.83;41.76;101165.89;100487;1153;61685;-61
2021/03/26 09:18:12;;;;;;;66.03;52.08;;;;;;;20.12;42.21;101162.36;100550;1159;82237;-61
2021/03/26 09:20:31;;;;;;;66.43;50.28;;;;;;;19.91;41.78;101160.98;100680;1151;71106;-61
2021/03/26 09:23:04;;;;;;;60.57;51.13;;;;;;;20.14;42.07;101152.83;100546;1151;84265;-66
2021/03/26 09:25:43;;;;;;;58.15;47.88;;;;;;;20.42;41.30;101164.04;100568;1149;77798;-66
2021/03/26 09:27:53;;;;;;;64.35;50.15;;;;;;;20.88;41.70;101159.67;100639;1151;61606;-62
2021/03/26 09:30:11;;;;;;;59.45;48.55;;;;;;;20.94;41.00;101155.97;100604;1150;83051;-62
2021/03/26 09:32:24;;;;;;;61.35;51.75;;;;;;;21.29;40.24;101156.81;100579;1159;71009;-62
2021/03/26 09:34:36;;;;;;;;;;;;;;;20.83;34.33;101165.05;100555;1159;84639;-61
2021/03/26 09:36:45;;;;;;;64.07;49.80;;;;;;;20.20;38.47;101162.03;100593;1149;77674;-63
2021/03/26 09:39:05;;;;;;;58.27;48.73;;;;;;;20.26;38.74;101159.23;100576;1153;61627;-65
2021/03/26 09:41:21;;;;;;;63.20;50.40;;;;;;;20.79;38.63;101163.87;100772;1152;82651;-65
2021/03/26 09:43:32;;;;;;;63.10;49.65;;;;;;;20.54;36.79;101159.42;100639;1151;72572;-64
2021/03/26 09:45:47;;;;;;;58.67;49.63;;;;;;;20.50;37.22;101160.11;100610;1151;84397;-66
2021/03/26 09:48:42;;;;;;;63.45;50.85;;;;;;;20.70;37.93;101155.14;100573;1153;79201;-62
2021/03/26 09:51:05;;;;;;;63.20;50.20;;;;;;;21.00;38.44;101155.03;100681;1151;62089;-61
2021/03/26 09:53:16;;;;;;;63.78;49.93;;;;;;;20.62;38.13;101160.98;100612;1159;82215;-60
2021/03/26 09:55:32;;;;;;;62.35;49.20;;;;;;;20.79;38.69;101153.72;100638;1159;71559;-61
2021/03/26 09:57:49;;;;;;;57.63;46.77;;;;;;;20.85;38.19;101152.74;100532;1151;83552;-65
2021/03/26 10:00:26;;;;;;;66.97;50.60;;;;;;;20.66;35.79;101153.11;100561;1151;78168;-65
2021/03/26 10:02:38;;;;;;;59.55;46.73;;;;;;;19.78;37.28;101152.91;100588;1151;61660;-61
2021/03/26 10:04:51;;;;;;;62.05;50.23;;;;;;;19.42;37.76;101153.78;100537;1159;81443;-61
2021/03/26 10:07:13;;;;;;;62.68;50.25;;;;;;;18.98;38.17;101152.13;100625;1152;71458;-60
2021/03/26 10:09:29;;;;;;;68.13;52.87;;;;;;;18.59;38.44;101153.35;100551;1151;84856;-61
2021/03/26 10:11:54;;;;;;;67.33;51.63;;;;;;;18.35;38.04;101153.31;100562;1152;76989;-60
2021/03/26 10:14:09;;;;;;;66.90;51.35;;;;;;;18.00;39.28;101152.89;100600;1152;61628;-64
2021/03/26 10:16:28;;;;;;;65.35;47.80;;;;;;;18.22;39.37;101159.69;100878;1149;82111;-63
2021/03/26 10:18:43;;;;;;;55.40;44.10;;;;;;;18.30;39.43;101153.95;100666;1151;71671;-66
2021/03/26 10:21:04;;;;;;;64.73;48.97;;;;;;;18.31;39.90;101154.80;100541;1151;84166;-64
2021/03/26 10:23:33;;;;;;;60.67;47.93;;;;;;;18.19;39.75;101154.66;100591;1151;77440;-66
2021/03/26 10:25:49;;;;;;;61.63;47.97;;;;;;;18.27;40.28;101148.92;100606;1152;61606;-65
2021/03/26 10:28:10;;;;;;;55.87;46.37;;;;;;;18.55;40.36;101145.80;100531;1159;83295;-59
2021/03/26 10:30:31;;;;;;;63.13;48.53;;;;;;;18.14;39.01;101149.02;100585;1152;71013;-59